Burnside, Iowa
Current Conditions -  °F | °C
As of 11:15 PM on Friday 19 Dec 2014 (Local Time) from KEBS Reporting Station
Haze Haze  
Wind Chill: 21°   Ceiling: 300
Heat Index: 30°   Visibility: 1.5mi
Dew Point: 30°   Wind: 12mph
Humidity: 100%   Direction: 160°SSE
Pressure: 30.16"   Gusts: NA
Location:  42.35°N, 94.11°W
Report Text: KEBS 200515Z AUTO 16010KT 1 1/2SM BR OVC003 M01/M01 A3016 RMK AO2
Loading
Personal Weather Stations






























Interactive Weather Map New forecast layout! Learn more

10-Day Weather Forecast

Advertisements
Track Severe Weather on mobile